• Join FlightAware (Why Join?)
  • Login
  • US Flag 
05:03AM EDT


 

Airport Tracker/Info


-or-


 

Live Flight TrackerFlight Track Log ✈ ASQ5489 ✈ 25-Apr-2012 ✈ KATL - KGNV

Flight Track Log - Related Links

Times and Time Zones

All times are in EDT time to prevent confusion due to time zone crossing. See the ASQ5489 flight status page for this flight to view local times or setup timezone preferences in your user account.

Time Position Orientation Groundspeed Altitude Reporting Facility
EDT Latitude Longitude Course Direction KTS MPH feet Rate Location/Type
01:49PM 33.6333 -84.4833 270° West 171 197 2,500  Level Atlanta TRACON
01:50PM 33.6333 -84.5667 270° West 249 287 5,500 2,880 Climbing Atlanta TRACON
01:51PM 33.6333 -84.6500 221° Southwest 252 290 8,600 2,700 Climbing Atlanta TRACON
01:52PM 33.6025 -84.6822 190° South 271 312 9,700 900 Climbing Atlanta Center
01:53PM 33.5253 -84.6992 174° South 308 354 10,000 120 Climbing Atlanta Center
01:54PM 33.4189 -84.6858 142° Southeast 348 400 10,000 300 Level Atlanta Center
01:55PM 33.3317 -84.6033 134° Southeast 379 436 10,700 1,500 Climbing Atlanta Center
01:56PM 33.2569 -84.5108 133° Southeast 384 442 13,000 1,500 Climbing Atlanta Center
01:57PM 33.1822 -84.4136 133° Southeast 396 456 13,800 1,020 Climbing Atlanta Center
01:58PM 33.1008 -84.3092 133° Southeast 418 481 15,100 1,260 Climbing Atlanta Center
01:59PM 33.0197 -84.2047 153° Southeast 423 487 16,400 1,500 Climbing Atlanta Center
02:00PM 32.9156 -84.1403 160° South 415 478 18,200 5,220 Climbing Atlanta Center
02:01PM 32.8069 -84.0931 163° South 410 472 27,000 1,380 Climbing Atlanta Center
02:02PM 32.6964 -84.0536 160° South 410 472 21,000 -2,580 Descending Atlanta Center
02:03PM 32.5856 -84.0067 161° South 410 472 22,000 960 Climbing Atlanta Center
02:04PM 32.4731 -83.9600 161° South 420 483 23,000 960 Climbing Atlanta Center
02:05PM 32.3581 -83.9133 161° South 433 498 24,000 720 Climbing Atlanta Center
02:06PM 32.1483 -83.8275 161° South 435 501 25,000 360 Climbing Jacksonville Center
02:07PM 32.0256 -83.7772 161° South 453 521 25,000  Level Jacksonville Center
02:08PM 31.9050 -83.7272 161° South 463 533 25,000  Level Jacksonville Center
02:09PM 31.7903 -83.6819 163° South 463 533 25,000  Level Jacksonville Center
02:10PM 31.6653 -83.6369 159° South 468 539 25,000  Level Jacksonville Center
02:11PM 31.5361 -83.5800 161° South 478 550 25,000  Level Jacksonville Center
02:12PM 31.4133 -83.5303 161° South 478 550 25,000  Level Jacksonville Center
02:13PM 31.2883 -83.4808 148° Southeast 478 550 25,000 -120 Level Jacksonville Center
02:14PM 31.1758 -83.4000 147° Southeast 478 550 24,800 -420 Descending Jacksonville Center
02:15PM 31.0614 -83.3122 138° Southeast 478 550 24,200 -420 Descending Jacksonville Center
02:16PM 30.9594 -83.2050 131° Southeast 489 563 24,000 -120 Descending Jacksonville Center
02:17PM 30.8719 -83.0886 131° Southeast 489 563 24,000  Level Jacksonville Center
02:18PM 30.7864 -82.9747 133° Southeast 476 548 24,000  Level Jacksonville Center
02:19PM 30.6944 -82.8611 150° Southeast 476 548 24,000 -60 Level Jacksonville Center
02:20PM 30.5672 -82.7767 152° Southeast 476 548 23,900 -120 Descending Jacksonville Center
02:21PM 30.4753 -82.7192 154° Southeast 455 524 23,800 -1,380 Descending Jacksonville Center
02:22PM 30.3750 -82.6614 156° South 420 483 21,200 -3,060 Descending Jacksonville Center
02:23PM 30.2642 -82.6039 152° Southeast 408 470 17,700 -3,300 Descending Jacksonville Center
02:24PM 30.1658 -82.5442 155° Southeast 394 453 14,600 -3,000 Descending Jacksonville Center
02:25PM 30.0864 -82.5014 152° Southeast 382 440 12,300 -2,100 Descending Jacksonville Center
02:26PM 29.9986 -82.4464 152° Southeast 365 420 10,400 -1,740 Descending Jacksonville Center
02:27PM 29.9253 -82.4014 125° Southeast 327 376 8,600 -1,920 Descending Jacksonville Center
02:28PM 29.8747 -82.3178 126° Southeast 291 335 6,600 -1,500 Descending Jacksonville Center
02:29PM 29.8328 -82.2508 122° Southeast 279 321 5,700 -900 Descending Jacksonville Center
02:30PM 29.7989 -82.1889 132° Southeast 256 295 4,800 -1,020 Descending Jacksonville Center
02:31PM 29.7653 -82.1461 186° South 216 249 3,700 -960 Descending Jacksonville Center
02:32PM 29.7236 -82.1511 186° South 176 203 2,900 -840 Descending Jacksonville Center